createdAt,value
2018-09-01T00:01:18.481Z,97.60
2018-09-01T00:03:47.469Z,98.10
2018-09-01T00:06:16.523Z,98.00
2018-09-01T00:08:45.539Z,97.90
2018-09-01T00:11:14.591Z,98.10
2018-09-01T00:13:43.771Z,98.40
2018-09-01T00:16:12.780Z,98.40
2018-09-01T00:18:41.870Z,98.10
2018-09-01T00:21:10.878Z,98.00
2018-09-01T00:23:39.916Z,98.60
2018-09-01T00:26:08.990Z,99.10
2018-09-01T00:28:38.034Z,99.10
2018-09-01T00:31:07.109Z,99.10
2018-09-01T00:33:36.132Z,99.30
2018-09-01T00:36:05.754Z,99.50
2018-09-01T00:38:46.723Z,99.90
2018-09-01T00:41:15.729Z,99.10
2018-09-01T00:43:44.719Z,98.80
2018-09-01T00:46:13.742Z,99.10
2018-09-01T00:48:42.784Z,99.80
2018-09-01T00:51:11.775Z,99.90
2018-09-01T00:53:40.906Z,99.90
2018-09-01T00:56:09.992Z,99.90
2018-09-01T00:58:39.067Z,99.90
2018-09-01T01:01:08.087Z,99.90
2018-09-01T01:03:37.180Z,99.90
2018-09-01T01:06:06.193Z,99.90
2018-09-01T01:08:35.427Z,99.90
2018-09-01T01:11:04.740Z,99.90
2018-09-01T01:13:33.773Z,99.90
2018-09-01T01:16:03.052Z,99.90
2018-09-01T01:18:32.104Z,99.90
2018-09-01T01:21:01.141Z,99.90
2018-09-01T01:23:30.184Z,99.90
2018-09-01T01:25:59.223Z,99.90
2018-09-01T01:28:28.232Z,99.90
2018-09-01T01:30:57.278Z,99.90
2018-09-01T01:33:26.336Z,99.90
2018-09-01T01:35:55.332Z,99.90
2018-09-01T01:38:24.714Z,99.90
2018-09-01T01:40:53.707Z,99.90
2018-09-01T01:43:22.724Z,99.90
2018-09-01T01:45:51.725Z,99.90
2018-09-01T01:48:20.805Z,99.90
2018-09-01T01:50:49.809Z,99.90
2018-09-01T01:53:18.963Z,99.90
2018-09-01T01:55:47.988Z,99.90
2018-09-01T01:58:16.989Z,99.90
2018-09-01T02:00:46.005Z,99.90
2018-09-01T02:03:14.999Z,99.90
2018-09-01T02:05:43.990Z,99.90
2018-09-01T02:08:13.090Z,99.90
2018-09-01T02:10:42.104Z,99.90
2018-09-01T02:13:11.314Z,99.90
2018-09-01T02:15:40.356Z,99.90
2018-09-01T02:18:09.330Z,99.90
2018-09-01T02:20:38.369Z,99.90
2018-09-01T02:23:07.437Z,99.90
2018-09-01T02:25:37.185Z,99.90
2018-09-01T02:28:08.135Z,99.90
2018-09-01T02:30:37.184Z,99.90
2018-09-01T02:33:06.238Z,99.90
2018-09-01T02:35:35.226Z,99.90
2018-09-01T02:38:04.233Z,99.90
2018-09-01T02:40:33.256Z,99.90
2018-09-01T02:43:02.262Z,99.90
2018-09-01T02:45:31.531Z,99.90
2018-09-01T02:48:00.628Z,99.90
2018-09-01T02:50:29.682Z,99.90
2018-09-01T02:53:01.601Z,99.90
2018-09-01T02:55:30.611Z,99.90
2018-09-01T02:57:59.669Z,99.90
2018-09-01T03:00:34.042Z,99.90
2018-09-01T03:03:03.106Z,99.90
2018-09-01T03:05:32.132Z,99.90
2018-09-01T03:08:01.643Z,99.90
2018-09-01T03:10:30.901Z,99.90
2018-09-01T03:13:00.193Z,99.90
2018-09-01T03:15:29.248Z,99.90
2018-09-01T03:17:58.294Z,99.90
2018-09-01T03:20:27.652Z,99.90
2018-09-01T03:22:56.671Z,99.90
2018-09-01T03:25:25.680Z,99.90
2018-09-01T03:27:54.695Z,99.90
2018-09-01T03:30:23.746Z,99.90
2018-09-01T03:32:52.752Z,99.90
2018-09-01T03:35:21.775Z,99.90
2018-09-01T03:37:51.164Z,99.90
2018-09-01T03:40:20.173Z,99.90
2018-09-01T03:42:49.151Z,99.90
2018-09-01T03:45:18.381Z,99.90
2018-09-01T03:47:47.519Z,99.90
2018-09-01T03:50:16.510Z,99.90
2018-09-01T03:52:45.559Z,99.90
2018-09-01T03:55:14.633Z,99.90
2018-09-01T03:57:43.760Z,99.90
2018-09-01T04:00:13.204Z,99.90
2018-09-01T04:02:42.312Z,99.90
2018-09-01T04:05:11.322Z,99.90
2018-09-01T04:07:40.380Z,99.90
2018-09-01T04:10:09.415Z,99.90
2018-09-01T04:12:38.451Z,99.90
2018-09-01T04:15:07.509Z,99.90
2018-09-01T04:17:36.564Z,99.90
2018-09-01T04:20:06.061Z,99.90
2018-09-01T04:22:35.071Z,99.90
2018-09-01T04:25:04.448Z,99.90
2018-09-01T04:27:33.449Z,99.90
2018-09-01T04:30:02.463Z,99.90
2018-09-01T04:32:31.487Z,99.90
2018-09-01T04:35:00.831Z,99.90
2018-09-01T04:37:29.827Z,99.90
2018-09-01T04:39:58.824Z,99.90
2018-09-01T04:42:27.914Z,99.90
2018-09-01T04:44:56.884Z,99.90
2018-09-01T04:47:25.949Z,99.90
2018-09-01T04:49:55.181Z,99.90
2018-09-01T04:52:24.201Z,99.90
2018-09-01T04:54:53.256Z,99.90
2018-09-01T04:57:22.224Z,99.90
2018-09-01T04:59:51.266Z,99.90
2018-09-01T05:02:20.328Z,99.90
2018-09-01T05:04:49.356Z,99.90
2018-09-01T05:07:18.375Z,99.90
2018-09-01T05:09:47.407Z,99.90
2018-09-01T05:12:16.434Z,99.90
2018-09-01T05:14:45.469Z,99.90
2018-09-01T05:17:14.457Z,99.90
2018-09-01T05:19:43.467Z,99.90
2018-09-01T05:22:12.539Z,99.90
2018-09-01T05:24:41.568Z,99.90
2018-09-01T05:27:10.574Z,99.90
2018-09-01T05:29:39.632Z,99.90
2018-09-01T05:32:08.661Z,99.90
2018-09-01T05:34:37.667Z,99.90
2018-09-01T05:37:06.732Z,99.90
2018-09-01T05:39:35.742Z,99.90
2018-09-01T05:42:04.800Z,99.90
2018-09-01T05:44:33.816Z,99.90
2018-09-01T05:47:02.939Z,99.90
2018-09-01T05:49:32.022Z,99.90
2018-09-01T05:52:01.083Z,99.90
2018-09-01T05:54:30.331Z,99.90
2018-09-01T05:56:59.489Z,99.90
2018-09-01T05:59:28.545Z,99.90
2018-09-01T06:01:57.548Z,99.90
2018-09-01T06:04:26.812Z,99.90
2018-09-01T06:06:55.891Z,99.90
2018-09-01T06:09:24.885Z,99.90
2018-09-01T06:11:53.889Z,99.90
2018-09-01T06:14:22.956Z,99.90
2018-09-01T06:16:51.963Z,99.90
2018-09-01T06:19:21.100Z,99.90
2018-09-01T06:21:50.230Z,99.90
2018-09-01T06:24:19.259Z,99.90
2018-09-01T06:26:48.252Z,99.90
2018-09-01T06:29:18.642Z,99.90
2018-09-01T06:31:51.737Z,99.90
2018-09-01T06:34:20.972Z,99.90
2018-09-01T06:36:50.146Z,99.90
2018-09-01T06:39:19.143Z,99.90
2018-09-01T06:41:48.175Z,99.90
2018-09-01T06:44:17.204Z,99.90
2018-09-01T06:46:46.562Z,99.90
2018-09-01T06:49:16.027Z,99.90
2018-09-01T06:51:45.082Z,99.90
2018-09-01T06:54:14.149Z,99.90
2018-09-01T06:56:43.264Z,99.90
2018-09-01T06:59:12.321Z,99.90
2018-09-01T07:01:41.388Z,99.90
2018-09-01T07:04:10.522Z,99.90
2018-09-01T07:06:39.545Z,99.80
2018-09-01T07:09:08.907Z,99.80
2018-09-01T07:11:38.120Z,99.30
2018-09-01T07:14:07.832Z,99.10
2018-09-01T07:16:36.823Z,98.90
2018-09-01T07:19:06.860Z,98.50
2018-09-01T07:21:39.449Z,98.30
2018-09-01T07:24:09.590Z,97.90
2018-09-01T07:26:39.627Z,97.30
2018-09-01T07:29:08.669Z,96.90
2018-09-01T07:31:38.270Z,96.50
2018-09-01T07:34:07.230Z,96.50
2018-09-01T07:36:36.289Z,96.30
2018-09-01T07:39:06.620Z,96.00
2018-09-01T07:41:35.642Z,95.40
2018-09-01T07:44:04.684Z,95.30
2018-09-01T07:46:33.985Z,95.30
2018-09-01T07:49:03.283Z,95.00
2018-09-01T07:51:32.396Z,94.60
2018-09-01T07:54:01.383Z,94.40
2018-09-01T07:56:30.425Z,94.10
2018-09-01T07:58:59.663Z,93.80
2018-09-01T08:01:28.726Z,93.90
2018-09-01T08:03:57.727Z,93.30
2018-09-01T08:06:26.820Z,93.60
2018-09-01T08:08:55.882Z,93.80
2018-09-01T08:11:24.980Z,93.70
2018-09-01T08:13:54.150Z,93.20
2018-09-01T08:16:23.314Z,92.90
2018-09-01T08:18:52.587Z,92.80
2018-09-01T08:21:21.699Z,92.30
2018-09-01T08:24:09.016Z,92.30
2018-09-01T08:26:40.321Z,92.20
2018-09-01T08:29:10.406Z,91.90
2018-09-01T08:31:46.481Z,91.60
2018-09-01T08:34:15.536Z,91.50
2018-09-01T08:36:44.879Z,91.00
2018-09-01T08:39:14.189Z,90.90
2018-09-01T08:41:43.251Z,90.70
2018-09-01T08:44:12.747Z,90.50
2018-09-01T08:46:41.845Z,90.10
2018-09-01T08:49:14.591Z,90.00
2018-09-01T08:51:44.983Z,89.60
2018-09-01T08:54:14.327Z,90.00
2018-09-01T08:56:43.464Z,89.20
2018-09-01T08:59:12.648Z,89.10
2018-09-01T09:01:41.686Z,87.70
2018-09-01T09:04:10.736Z,87.40
2018-09-01T09:06:40.140Z,87.40
2018-09-01T09:09:09.180Z,88.00
2018-09-01T09:11:38.291Z,87.70
2018-09-01T09:14:08.716Z,87.40
2018-09-01T09:16:37.751Z,86.50
2018-09-01T09:19:06.743Z,85.10
2018-09-01T09:21:35.839Z,86.10
2018-09-01T09:24:04.999Z,85.80
2018-09-01T09:26:34.102Z,86.60
2018-09-01T09:29:03.435Z,86.70
2018-09-01T09:31:32.538Z,86.30
2018-09-01T09:34:01.647Z,85.00
2018-09-01T09:36:30.753Z,82.60
2018-09-01T09:38:59.772Z,82.80
2018-09-01T09:41:28.952Z,82.60
2018-09-01T09:43:58.049Z,81.90
2018-09-01T09:46:27.042Z,81.40
2018-09-01T09:48:56.141Z,80.20
2018-09-01T09:51:25.142Z,77.10
2018-09-01T09:53:54.162Z,75.60
2018-09-01T09:56:23.280Z,74.70
2018-09-01T09:58:52.392Z,75.10
2018-09-01T10:01:26.755Z,73.70
2018-09-01T10:03:55.875Z,73.70
2018-09-01T10:06:25.115Z,73.90
2018-09-01T10:08:54.148Z,72.40
2018-09-01T10:11:23.227Z,70.80
2018-09-01T10:13:52.686Z,67.50
2018-09-01T10:16:21.693Z,65.60
2018-09-01T10:18:50.703Z,65.90
2018-09-01T10:21:19.744Z,63.90
2018-09-01T10:23:48.812Z,63.10
2018-09-01T10:26:17.855Z,63.20
2018-09-01T10:28:46.909Z,61.70
2018-09-01T10:31:16.192Z,61.50
2018-09-01T10:33:45.271Z,60.50
2018-09-01T10:36:14.358Z,59.90
2018-09-01T10:38:43.643Z,60.30
2018-09-01T10:41:12.722Z,60.20
2018-09-01T10:43:41.763Z,59.90
2018-09-01T10:46:10.914Z,60.00
2018-09-01T10:48:40.041Z,60.50
2018-09-01T10:51:09.048Z,60.40
2018-09-01T10:53:38.320Z,59.10
2018-09-01T10:56:07.337Z,56.60
2018-09-01T10:58:36.482Z,54.50
2018-09-01T11:01:05.884Z,52.30
2018-09-01T11:03:34.977Z,52.00
2018-09-01T11:06:04.100Z,50.70
2018-09-01T11:08:33.125Z,49.40
2018-09-01T11:11:02.656Z,43.70
2018-09-01T11:13:31.927Z,38.90
2018-09-01T11:16:01.535Z,36.10
2018-09-01T11:18:31.277Z,32.70
2018-09-01T11:21:01.163Z,31.40
2018-09-01T11:23:30.916Z,33.50
2018-09-01T11:26:00.515Z,36.10
2018-09-01T11:28:30.091Z,39.10
2018-09-01T11:30:59.182Z,40.80
2018-09-01T11:33:28.386Z,42.40
2018-09-01T11:35:57.463Z,43.10
2018-09-01T11:38:26.572Z,44.20
2018-09-01T11:40:55.779Z,44.10
2018-09-01T11:43:25.476Z,39.70
2018-09-01T11:45:55.174Z,33.90
2018-09-01T11:48:25.011Z,34.60
2018-09-01T11:50:54.758Z,37.70
2018-09-01T11:53:24.473Z,40.00
2018-09-01T11:55:53.463Z,42.00
2018-09-01T11:58:22.823Z,43.80
2018-09-01T12:00:51.947Z,43.00
2018-09-01T12:03:21.184Z,41.90
2018-09-01T12:05:50.245Z,41.40
2018-09-01T12:08:19.297Z,41.30
2018-09-01T12:10:48.368Z,42.30
2018-09-01T12:13:17.378Z,42.90
2018-09-01T12:15:46.462Z,43.80
2018-09-01T12:18:15.536Z,45.70
2018-09-01T12:20:44.218Z,47.20
2018-09-01T12:23:13.255Z,47.70
2018-09-01T12:25:42.287Z,46.20
2018-09-01T12:28:11.998Z,42.50
2018-09-01T12:30:41.857Z,37.60
2018-09-01T12:33:11.464Z,33.20
2018-09-01T12:35:41.275Z,31.10
2018-09-01T12:38:10.841Z,29.50
2018-09-01T12:40:40.462Z,29.70
2018-09-01T12:43:10.077Z,32.80
2018-09-01T12:45:39.707Z,35.30
2018-09-01T12:48:09.322Z,36.30
2018-09-01T12:50:38.985Z,33.10
2018-09-01T12:53:08.637Z,32.00
2018-09-01T12:55:38.505Z,29.10
2018-09-01T12:58:08.270Z,27.70
2018-09-01T13:00:37.914Z,26.90
2018-09-01T13:03:07.818Z,26.70
2018-09-01T13:05:37.576Z,27.60
2018-09-01T13:08:07.843Z,30.70
2018-09-01T13:10:37.768Z,35.70
2018-09-01T13:13:07.623Z,41.50
2018-09-01T13:15:37.283Z,43.20
2018-09-01T13:18:06.430Z,44.20
2018-09-01T13:20:35.454Z,43.60
2018-09-01T13:23:05.190Z,42.90
2018-09-01T13:25:35.924Z,41.60
2018-09-01T13:28:05.188Z,39.90
2018-09-01T13:30:34.295Z,39.00
2018-09-01T13:33:04.233Z,36.20
2018-09-01T13:35:34.047Z,32.90
2018-09-01T13:38:03.751Z,30.40
2018-09-01T13:40:33.370Z,30.30
2018-09-01T13:43:02.979Z,32.20
2018-09-01T13:45:32.559Z,31.30
2018-09-01T13:48:02.130Z,30.50
2018-09-01T13:50:31.943Z,30.20
2018-09-01T13:53:01.709Z,33.90
2018-09-01T13:55:31.290Z,33.30
2018-09-01T13:58:00.855Z,30.70
2018-09-01T14:00:30.473Z,28.40
2018-09-01T14:03:00.085Z,27.40
2018-09-01T14:05:29.692Z,26.70
2018-09-01T14:07:59.327Z,29.20
2018-09-01T14:10:29.326Z,30.70
2018-09-01T14:12:59.029Z,32.50
2018-09-01T14:15:28.642Z,34.50
2018-09-01T14:17:58.321Z,35.80
2018-09-01T14:20:28.369Z,36.90
2018-09-01T14:22:58.007Z,33.80
2018-09-01T14:25:27.680Z,32.40
2018-09-01T14:27:57.502Z,31.10
2018-09-01T14:30:27.194Z,30.30
2018-09-01T14:32:56.827Z,30.70
2018-09-01T14:35:26.645Z,29.30
2018-09-01T14:37:56.269Z,30.00
2018-09-01T14:40:25.909Z,28.70
2018-09-01T14:42:55.553Z,28.40
2018-09-01T14:45:25.786Z,28.50
2018-09-01T14:47:55.559Z,30.30
2018-09-01T14:50:25.389Z,33.20
2018-09-01T14:52:55.350Z,33.50
2018-09-01T14:55:24.958Z,34.00
2018-09-01T14:57:54.714Z,33.00
2018-09-01T15:00:24.514Z,32.10
2018-09-01T15:02:54.199Z,31.20
2018-09-01T15:05:23.947Z,29.70
2018-09-01T15:07:53.541Z,30.90
2018-09-01T15:10:23.750Z,29.60
2018-09-01T15:12:54.660Z,28.00
2018-09-01T15:15:24.593Z,27.20
2018-09-01T15:17:54.312Z,28.00
2018-09-01T15:20:23.975Z,27.50
2018-09-01T15:22:53.760Z,26.90
2018-09-01T15:25:23.384Z,26.50
2018-09-01T15:27:52.997Z,25.50
2018-09-01T15:30:22.662Z,25.20
2018-09-01T15:32:52.238Z,25.50
2018-09-01T15:35:21.859Z,25.20
2018-09-01T15:37:51.685Z,26.00
2018-09-01T15:40:21.482Z,26.70
2018-09-01T15:42:51.932Z,26.60
2018-09-01T15:45:21.500Z,26.60
2018-09-01T15:47:51.332Z,25.90
2018-09-01T15:50:21.129Z,25.80
2018-09-01T15:52:50.683Z,26.80
2018-09-01T15:55:20.626Z,26.90
2018-09-01T15:57:50.235Z,28.00
2018-09-01T16:00:19.844Z,27.50
2018-09-01T16:02:49.408Z,26.90
2018-09-01T16:05:19.048Z,27.80
2018-09-01T16:07:48.627Z,28.90
2018-09-01T16:10:18.197Z,28.50
2018-09-01T16:12:47.853Z,29.40
2018-09-01T16:15:17.559Z,29.20
2018-09-01T16:17:47.175Z,28.90
2018-09-01T16:20:16.762Z,28.30
2018-09-01T16:22:46.365Z,27.30
2018-09-01T16:25:15.969Z,26.80
2018-09-01T16:27:45.594Z,26.90
2018-09-01T16:30:15.201Z,26.30
2018-09-01T16:32:44.828Z,26.30
2018-09-01T16:35:14.620Z,25.70
2018-09-01T16:37:44.442Z,26.00
2018-09-01T16:40:14.185Z,26.10
2018-09-01T16:42:44.114Z,26.10
2018-09-01T16:45:13.821Z,26.50
2018-09-01T16:47:43.740Z,27.60
2018-09-01T16:50:13.504Z,27.50
2018-09-01T16:52:43.130Z,28.50
2018-09-01T16:55:12.731Z,28.40
2018-09-01T16:57:42.342Z,28.70
2018-09-01T17:00:12.057Z,29.30
2018-09-01T17:02:41.797Z,31.40
2018-09-01T17:05:11.640Z,33.30
2018-09-01T17:07:41.585Z,35.50
2018-09-01T17:10:10.794Z,37.20
2018-09-01T17:12:39.884Z,38.90
2018-09-01T17:15:09.554Z,40.20
2018-09-01T17:17:38.791Z,40.90
2018-09-01T17:20:07.852Z,41.30
2018-09-01T17:22:36.849Z,42.30
2018-09-01T17:25:06.691Z,42.70
2018-09-01T17:27:35.705Z,43.00
2018-09-01T17:30:05.853Z,43.40
2018-09-01T17:32:34.873Z,44.00
2018-09-01T17:35:04.392Z,44.80
2018-09-01T17:37:33.418Z,45.10
2018-09-01T17:40:02.498Z,45.30
2018-09-01T17:42:31.549Z,46.00
2018-09-01T17:45:00.588Z,46.70
2018-09-01T17:47:29.617Z,47.10
2018-09-01T17:49:59.728Z,47.30
2018-09-01T17:52:28.830Z,47.30
2018-09-01T17:54:57.875Z,47.70
2018-09-01T17:57:26.921Z,48.00
2018-09-01T17:59:55.956Z,48.10
2018-09-01T18:02:25.226Z,49.00
2018-09-01T18:04:54.748Z,49.20
2018-09-01T18:07:23.946Z,49.80
2018-09-01T18:09:53.233Z,50.00
2018-09-01T18:12:22.267Z,50.40
2018-09-01T18:14:51.712Z,50.90
2018-09-01T18:17:20.771Z,51.50
2018-09-01T18:19:49.791Z,51.70
2018-09-01T18:22:18.845Z,52.10
2018-09-01T18:24:48.085Z,52.30
2018-09-01T18:27:17.485Z,52.90
2018-09-01T18:29:46.524Z,52.90
2018-09-01T18:32:15.540Z,53.20
2018-09-01T18:34:44.563Z,53.50
2018-09-01T18:37:13.608Z,53.80
2018-09-01T18:39:42.822Z,54.00
2018-09-01T18:42:11.884Z,54.50
2018-09-01T18:44:40.948Z,54.90
2018-09-01T18:47:10.039Z,55.70
2018-09-01T18:49:39.157Z,56.10
2018-09-01T18:52:08.432Z,56.70
2018-09-01T18:54:37.461Z,56.70
2018-09-01T18:57:06.548Z,57.20
2018-09-01T18:59:35.575Z,57.60
2018-09-01T19:02:04.952Z,57.80
2018-09-01T19:04:34.112Z,57.70
2018-09-01T19:07:03.919Z,58.40
2018-09-01T19:09:32.990Z,58.60
2018-09-01T19:12:02.020Z,58.90
2018-09-01T19:14:32.401Z,59.30
2018-09-01T19:17:01.527Z,60.40
2018-09-01T19:19:31.189Z,60.30
2018-09-01T19:22:00.229Z,60.70
2018-09-01T19:24:30.205Z,61.30
2018-09-01T19:26:59.291Z,62.10
2018-09-01T19:29:29.060Z,62.50
2018-09-01T19:31:58.194Z,63.00
2018-09-01T19:34:27.189Z,63.60
2018-09-01T19:36:56.515Z,64.40
2018-09-01T19:39:25.573Z,64.40
2018-09-01T19:41:54.600Z,66.40
2018-09-01T19:44:23.620Z,66.60
2018-09-01T19:46:52.670Z,67.70
2018-09-01T19:49:21.685Z,68.40
2018-09-01T19:51:50.671Z,69.00
2018-09-01T19:54:19.732Z,69.60
2018-09-01T19:56:48.816Z,70.10
2018-09-01T19:59:18.065Z,70.70
2018-09-01T20:01:47.133Z,71.50
2018-09-01T20:04:16.179Z,71.80
2018-09-01T20:06:45.239Z,73.10
2018-09-01T20:09:14.256Z,72.70
2018-09-01T20:11:43.525Z,72.40
2018-09-01T20:14:13.090Z,72.60
2018-09-01T20:16:43.184Z,73.10
2018-09-01T20:19:12.397Z,72.60
2018-09-01T20:21:41.508Z,73.60
2018-09-01T20:24:10.965Z,73.60
2018-09-01T20:26:40.068Z,72.90
2018-09-01T20:29:09.267Z,73.00
2018-09-01T20:31:38.258Z,73.60
2018-09-01T20:34:07.295Z,73.80
2018-09-01T20:36:36.316Z,74.20
2018-09-01T20:39:06.721Z,75.40
2018-09-01T20:41:35.727Z,75.60
2018-09-01T20:44:04.745Z,75.30
2018-09-01T20:46:33.949Z,75.60
2018-09-01T20:49:03.014Z,75.60
2018-09-01T20:51:32.008Z,75.90
2018-09-01T20:54:01.024Z,75.70
2018-09-01T20:56:30.111Z,75.70
2018-09-01T20:58:59.802Z,75.90
2018-09-01T21:01:29.113Z,76.40
2018-09-01T21:03:59.122Z,76.70
2018-09-01T21:06:28.200Z,76.90
2018-09-01T21:08:57.282Z,77.50
2018-09-01T21:11:26.699Z,78.70
2018-09-01T21:13:55.770Z,78.30
2018-09-01T21:16:25.052Z,79.50
2018-09-01T21:18:54.241Z,80.10
2018-09-01T21:21:23.964Z,81.60
2018-09-01T21:23:53.006Z,82.10
2018-09-01T21:26:22.087Z,82.90
2018-09-01T21:28:51.509Z,84.00
2018-09-01T21:31:20.538Z,83.30
2018-09-01T21:33:49.767Z,84.30
2018-09-01T21:36:18.817Z,85.20
2018-09-01T21:38:47.882Z,86.30
2018-09-01T21:41:16.945Z,86.60
2018-09-01T21:43:46.089Z,87.00
2018-09-01T21:46:15.148Z,87.30
2018-09-01T21:48:44.184Z,87.20
2018-09-01T21:51:13.258Z,88.20
2018-09-01T21:53:42.273Z,88.90
2018-09-01T21:56:11.345Z,88.00
2018-09-01T21:58:40.371Z,88.40
2018-09-01T22:01:14.670Z,89.00
2018-09-01T22:03:48.746Z,89.20
2018-09-01T22:06:18.958Z,88.70
2018-09-01T22:08:48.318Z,89.50
2018-09-01T22:11:18.061Z,89.70
2018-09-01T22:13:47.084Z,89.70
2018-09-01T22:16:16.125Z,90.00
2018-09-01T22:18:45.219Z,90.10
2018-09-01T22:21:14.264Z,90.30
2018-09-01T22:23:43.622Z,90.40
2018-09-01T22:26:12.885Z,90.70
2018-09-01T22:28:42.381Z,91.10
2018-09-01T22:31:11.835Z,90.80
2018-09-01T22:33:41.064Z,90.80
2018-09-01T22:36:10.118Z,90.90
2018-09-01T22:38:39.810Z,91.20
2018-09-01T22:41:09.085Z,91.30
2018-09-01T22:43:38.268Z,91.60
2018-09-01T22:46:07.313Z,91.80
2018-09-01T22:48:37.014Z,91.50
2018-09-01T22:51:06.031Z,91.70
2018-09-01T22:53:35.050Z,91.70
2018-09-01T22:56:04.092Z,91.90
2018-09-01T22:58:33.122Z,91.80
2018-09-01T23:01:03.002Z,91.90
2018-09-01T23:03:32.044Z,92.30
2018-09-01T23:06:01.325Z,92.40
2018-09-01T23:08:30.339Z,92.50
2018-09-01T23:10:59.364Z,92.50
2018-09-01T23:13:28.599Z,92.70
2018-09-01T23:15:57.585Z,92.70
2018-09-01T23:18:26.889Z,92.80
2018-09-01T23:20:55.996Z,92.90
2018-09-01T23:23:25.013Z,93.00
2018-09-01T23:25:54.039Z,93.20
2018-09-01T23:28:23.020Z,93.70
2018-09-01T23:30:52.085Z,94.10
2018-09-01T23:33:21.152Z,93.50
2018-09-01T23:35:50.408Z,93.90
2018-09-01T23:38:19.481Z,93.90
2018-09-01T23:40:48.722Z,94.50
2018-09-01T23:43:17.764Z,94.10
2018-09-01T23:45:46.797Z,93.50
2018-09-01T23:48:15.922Z,94.10
2018-09-01T23:50:44.938Z,94.50
2018-09-01T23:53:13.926Z,94.70
2018-09-01T23:55:42.975Z,95.20
2018-09-01T23:58:11.931Z,95.60
